Time;durP1;ratioP1;P1;durP2;ratioP2;P2;SDS_P1;SDS_P2;PMS_P1;PMS_P2;Temp;Humidity;BMP_temperature;BMP_pressure;BME280_temperature;BME280_humidity;BME280_pressure;Samples;Min_cycle;Max_cycle;Signal;HPM_P1;HPM_P2
2021/09/26 00:01:07;;;;;;;25.13;16.13;;;;;;;;;;4980589;28;20831;-69
2021/09/26 00:03:33;;;;;;;24.85;15.60;;;15.70;99.90;;;;;;4981123;28;20030;-68
2021/09/26 00:05:59;;;;;;;25.50;15.27;;;;;;;;;;4981833;28;20041;-69
2021/09/26 00:08:25;;;;;;;24.88;16.67;;;;;;;;;;4979931;28;20030;-69
2021/09/26 00:10:51;;;;;;;24.70;15.90;;;;;;;;;;4981411;28;20032;-69
2021/09/26 00:13:17;;;;;;;24.85;15.32;;;;;;;;;;4980079;28;20797;-68
2021/09/26 00:15:43;;;;;;;21.30;13.98;;;;;;;;;;4985158;28;20034;-68
2021/09/26 00:18:09;;;;;;;24.25;16.38;;;;;;;;;;4981255;28;20553;-69
2021/09/26 00:20:35;;;;;;;23.02;15.32;;;;;;;;;;4980805;28;20138;-69
2021/09/26 00:23:01;;;;;;;24.25;16.35;;;;;;;;;;4980401;28;20088;-69
2021/09/26 00:25:27;;;;;;;22.23;14.85;;;;;;;;;;4979625;28;20510;-69
2021/09/26 00:27:53;;;;;;;20.85;14.80;;;;;;;;;;4980788;28;20026;-69
2021/09/26 00:30:19;;;;;;;23.83;14.95;;;;;;;;;;4980148;28;20034;-68
2021/09/26 00:32:45;;;;;;;27.10;16.35;;;;;;;;;;4978819;28;20065;-69
2021/09/26 00:35:11;;;;;;;21.05;15.45;;;;;;;;;;4970756;28;20034;-69
2021/09/26 00:37:37;;;;;;;23.73;15.00;;;;;;;;;;4978332;28;20849;-69
2021/09/26 00:40:03;;;;;;;24.95;15.38;;;;;;;;;;4980579;28;20027;-69
2021/09/26 00:42:29;;;;;;;21.88;15.15;;;;;;;;;;4978479;28;20534;-69
2021/09/26 00:44:57;;;;;;;27.67;15.82;;;;;;;;;;4979661;28;20080;-69
2021/09/26 00:47:23;;;;;;;21.17;14.70;;;;;;;;;;4980645;28;20038;-69
2021/09/26 00:49:49;;;;;;;21.20;13.75;;;;;;;;;;4980191;28;20041;-69
2021/09/26 00:52:15;;;;;;;27.58;15.27;;;;;;;;;;4979860;28;20222;-69
2021/09/26 00:54:41;;;;;;;22.05;14.30;;;;;;;;;;4978632;28;20034;-69
2021/09/26 00:57:07;;;;;;;22.10;14.82;;;;;;;;;;4979884;28;20084;-69
2021/09/26 00:59:33;;;;;;;20.08;13.80;;;;;;;;;;4980347;28;20826;-69
2021/09/26 01:01:59;;;;;;;19.02;13.23;;;;;;;;;;4979263;28;20038;-69
2021/09/26 01:04:25;;;;;;;20.58;14.70;;;;;;;;;;4980015;28;20129;-69
2021/09/26 01:06:51;;;;;;;21.58;14.23;;;;;;;;;;4978197;28;20038;-69
2021/09/26 01:09:17;;;;;;;21.35;14.15;;;;;;;;;;4979835;28;20030;-69
2021/09/26 01:11:43;;;;;;;23.70;15.05;;;;;;;;;;4978529;28;20042;-69
2021/09/26 01:14:10;;;;;;;24.20;15.70;;;;;;;;;;4979924;28;20034;-69
2021/09/26 01:16:37;;;;;;;21.77;14.48;;;;;;;;;;4978344;28;20050;-69
2021/09/26 01:19:03;;;;;;;24.92;15.20;;;;;;;;;;4979253;28;20066;-69
2021/09/26 01:21:29;;;;;;;22.75;15.70;;;;;;;;;;4979256;28;20034;-69
2021/09/26 01:23:55;;;;;;;21.63;15.20;;;;;;;;;;4979052;28;20046;-69
2021/09/26 01:26:20;;;;;;;24.65;14.57;;;;;;;;;;4979228;28;20686;-69
2021/09/26 01:28:46;;;;;;;23.02;14.73;;;;;;;;;;4979736;28;20752;-69
2021/09/26 01:31:12;;;;;;;20.50;13.70;;;;;;;;;;4978926;28;20634;-69
2021/09/26 01:33:38;;;;;;;24.13;15.68;;;;;;;;;;4979685;28;20034;-69
2021/09/26 01:36:05;;;;;;;21.08;14.32;;;;;;;;;;4979463;28;20384;-69
2021/09/26 01:38:31;;;;;;;22.65;14.25;;;;;;;;;;4978236;28;20042;-69
2021/09/26 01:40:57;;;;;;;22.23;14.95;;;;;;;;;;4979354;28;20097;-69
2021/09/26 01:43:23;;;;;;;24.17;14.75;;;;;;;;;;4978495;28;20046;-69
2021/09/26 01:45:49;;;;;;;22.55;14.48;;;;;;;;;;4977733;28;20628;-69
2021/09/26 01:48:15;;;;;;;19.73;13.90;;;;;;;;;;4979104;28;20037;-69
2021/09/26 01:50:41;;;;;;;19.52;13.68;;;;;;;;;;4979318;28;20034;-68
2021/09/26 01:53:07;;;;;;;21.30;13.15;;;;;;;;;;4978716;28;20026;-68
2021/09/26 01:55:33;;;;;;;19.45;13.75;;;;;;;;;;4978684;28;20038;-69
2021/09/26 01:57:59;;;;;;;27.40;15.50;;;;;;;;;;4961565;28;20049;-69
2021/09/26 02:00:25;;;;;;;22.88;14.40;;;;;;;;;;4977099;28;20034;-68
2021/09/26 02:02:51;;;;;;;25.23;14.18;;;;;;;;;;4978352;28;20599;-69
2021/09/26 02:05:20;;;;;;;23.60;13.40;;;;;;;;;;4979138;28;20387;-68
2021/09/26 02:07:46;;;;;;;21.60;12.73;;;;;;;;;;4976037;28;20033;-69
2021/09/26 02:10:12;;;;;;;21.73;13.43;;;;;;;;;;4967446;28;20034;-69
2021/09/26 02:12:38;;;;;;;18.63;11.95;;;;;;;;;;4979623;28;20134;-68
2021/09/26 02:15:04;;;;;;;18.23;12.80;;;;;;;;;;4979476;28;20692;-69
2021/09/26 02:17:30;;;;;;;24.42;13.63;;;;;;;;;;4978070;28;20622;-68
2021/09/26 02:20:00;;;;;;;28.33;14.25;;;;;;;;;;4978574;28;20042;-68
2021/09/26 02:22:27;;;;;;;18.55;11.20;;;;;;;;;;4978149;28;20138;-68
2021/09/26 02:24:53;;;;;;;13.88;9.98;;;;;;;;;;4976252;28;20038;-68
2021/09/26 02:27:19;;;;;;;17.05;10.52;;;;;;;;;;4978237;28;20035;-69
2021/09/26 02:29:45;;;;;;;19.92;11.05;;;;;;;;;;4976503;28;20034;-68
2021/09/26 02:32:11;;;;;;;18.23;12.63;;;;;;;;;;4978596;28;20049;-68
2021/09/26 02:34:37;;;;;;;19.70;14.02;;;;;;;;;;4978961;28;20041;-68
2021/09/26 02:37:03;;;;;;;21.20;13.70;;;;;;;;;;4979838;28;20176;-68
2021/09/26 02:39:29;;;;;;;17.10;12.07;;;;;;;;;;4980883;28;20352;-68
2021/09/26 02:41:55;;;;;;;20.90;13.15;;;;;;;;;;4980371;28;20482;-68
2021/09/26 02:44:21;;;;;;;17.23;11.52;;;;;;;;;;4978494;28;20038;-68
2021/09/26 02:46:47;;;;;;;17.35;11.82;;;;;;;;;;4978858;28;20529;-68
2021/09/26 02:49:13;;;;;;;16.45;11.23;;;;;;;;;;4978694;28;20187;-68
2021/09/26 02:51:38;;;;;;;18.88;11.85;;;;;;;;;;4978959;28;20026;-69
2021/09/26 02:54:04;;;;;;;18.60;11.60;;;;;;;;;;4976001;28;20673;-69
2021/09/26 02:56:30;;;;;;;17.42;12.50;;;;;;;;;;4974977;28;20042;-69
2021/09/26 02:59:00;;;;;;;23.30;12.93;;;;;;;;;;4976022;28;20417;-69
2021/09/26 03:01:26;;;;;;;19.38;13.63;;;;;;;;;;4977613;28;20124;-69
2021/09/26 03:03:52;;;;;;;19.55;13.02;;;;;;;;;;4978356;28;20034;-69
2021/09/26 03:06:18;;;;;;;20.33;13.45;;;;;;;;;;4977362;28;20026;-69
2021/09/26 03:08:44;;;;;;;45.67;15.13;;;;;;;;;;4978331;28;20038;-69
2021/09/26 03:11:10;;;;;;;16.15;11.57;;;;;;;;;;4977163;28;20028;-69
2021/09/26 03:13:36;;;;;;;18.73;12.30;;;;;;;;;;4977676;28;20382;-69
2021/09/26 03:16:02;;;;;;;17.92;12.18;;;;;;;;;;4978948;28;20035;-69
2021/09/26 03:18:28;;;;;;;19.77;12.63;;;;;;;;;;4976794;28;20045;-69
2021/09/26 03:20:54;;;;;;;22.60;14.38;;;;;;;;;;4978230;28;20034;-69
2021/09/26 03:23:19;;;;;;;21.02;13.40;;;;;;;;;;4978441;28;20715;-69
2021/09/26 03:25:45;;;;;;;20.42;13.57;;;;;;;;;;4977723;28;20426;-69
2021/09/26 03:28:11;;;;;;;22.20;13.05;;;;;;;;;;4978629;28;20034;-69
2021/09/26 03:30:37;;;;;;;36.35;14.20;;;;;;;;;;4979170;28;20041;-69
2021/09/26 03:33:03;;;;;;;20.58;13.30;;;;;;;;;;4979200;28;20042;-69
2021/09/26 03:35:29;;;;;;;22.27;14.05;;;;;;;;;;4978452;28;20069;-69
2021/09/26 03:37:55;;;;;;;68.57;21.10;;;;;;;;;;4978770;28;20786;-69
2021/09/26 03:40:21;;;;;;;27.10;15.30;;;;;;;;;;4979077;28;20438;-69
2021/09/26 03:42:47;;;;;;;74.40;19.05;;;;;;;;;;4975565;28;20113;-69
2021/09/26 03:45:13;;;;;;;81.50;21.15;;;;;;;;;;4979711;28;20034;-69
2021/09/26 03:47:39;;;;;;;80.15;20.77;;;;;;;;;;4981566;28;20084;-69
2021/09/26 03:50:05;;;;;;;75.88;20.75;;;;;;;;;;4981803;28;20030;-68
2021/09/26 03:52:31;;;;;;;66.18;19.20;;;;;;;;;;4981737;28;20624;-68
2021/09/26 03:54:57;;;;;;;65.95;20.42;;;;;;;;;;4981639;28;20081;-68
2021/09/26 03:57:23;;;;;;;59.60;20.67;;;;;;;;;;4981949;28;20084;-69
2021/09/26 03:59:49;;;;;;;26.17;16.05;;;;;;;;;;4981359;28;20048;-68
2021/09/26 04:02:15;;;;;;;25.70;16.20;;;;;;;;;;4980239;28;20041;-69
2021/09/26 04:04:41;;;;;;;29.38;16.70;;;;;;;;;;4980379;28;20038;-69
2021/09/26 04:07:07;;;;;;;32.22;18.88;;;;;;;;;;4981374;28;20030;-69
2021/09/26 04:09:33;;;;;;;54.35;20.45;;;;;;;;;;4981730;28;20026;-69
2021/09/26 04:11:59;;;;;;;25.52;16.05;;;;;;;;;;4981113;28;20041;-69
2021/09/26 04:14:25;;;;;;;30.15;16.38;;;;;;;;;;4980636;28;20038;-69
2021/09/26 04:16:52;;;;;;;25.65;15.40;;;;;;;;;;4979531;28;20030;-70
2021/09/26 04:19:18;;;;;;;28.23;16.75;;;;;;;;;;4981374;28;20034;-69
2021/09/26 04:21:44;;;;;;;29.27;16.73;;;;;;;;;;4979076;28;20049;-71
2021/09/26 04:24:10;;;;;;;28.52;15.88;;;;;;;;;;4979456;28;20034;-69
2021/09/26 04:26:36;;;;;;;29.20;17.48;;;;;;;;;;4981768;28;20038;-72
2021/09/26 04:29:03;;;;;;;30.42;18.50;;;;;;;;;;4980438;28;20689;-70
2021/09/26 04:31:29;;;;;;;39.47;19.55;;;;;;;;;;4979642;28;20036;-67
2021/09/26 04:33:55;;;;;;;49.45;19.70;;;;;;;;;;4980288;28;20045;-68
2021/09/26 04:36:21;;;;;;;67.35;22.10;;;;;;;;;;4979938;28;20080;-68
2021/09/26 04:38:47;;;;;;;70.70;21.55;;;;;;;;;;4980552;28;20038;-70
2021/09/26 04:41:13;;;;;;;74.35;22.50;;;;;;;;;;4977707;28;20035;-70
2021/09/26 04:43:39;;;;;;;64.93;22.08;;;;;;;;;;4980515;28;20034;-70
2021/09/26 04:46:05;;;;;;;57.13;20.85;;;;;;;;;;4980726;28;20034;-69
2021/09/26 04:48:31;;;;;;;38.72;19.02;;;;;;;;;;4980444;28;20030;-69
2021/09/26 04:50:57;;;;;;;37.05;18.77;;;;;;;;;;4980302;28;20038;-69
2021/09/26 04:53:23;;;;;;;30.15;16.40;;;;;;;;;;4979219;28;20753;-69
2021/09/26 04:55:49;;;;;;;52.33;19.23;;;;;;;;;;4980768;28;20338;-69
2021/09/26 04:58:15;;;;;;;55.50;19.45;;;;;;;;;;4979785;28;20026;-68
2021/09/26 05:00:41;;;;;;;52.75;18.10;;;;;;;;;;4980580;28;20860;-71
2021/09/26 05:03:07;;;;;;;25.88;15.13;;;;;;;;;;4981339;28;20125;-70
2021/09/26 05:05:33;;;;;;;25.45;14.73;;;;;;;;;;4981324;28;20029;-70
2021/09/26 05:07:59;;;;;;;24.50;15.60;;;;;;;;;;4981371;28;20112;-70
2021/09/26 05:10:25;;;;;;;27.58;14.98;;;;;;;;;;4981009;28;20026;-70
2021/09/26 05:12:51;;;;;;;27.92;15.60;;;;;;;;;;4979184;28;20569;-69
2021/09/26 05:15:17;;;;;;;26.92;15.45;;;;;;;;;;4980588;28;20112;-71
2021/09/26 05:17:43;;;;;;;28.88;16.20;;;;;;;;;;4979689;28;20037;-70
2021/09/26 05:20:09;;;;;;;21.42;13.93;;;;;;;;;;4979678;28;20501;-70
2021/09/26 05:22:35;;;;;;;34.20;18.27;;;;;;;;;;4978174;28;20096;-71
2021/09/26 05:25:01;;;;;;;25.50;15.20;;;;;;;;;;4980247;28;20094;-70
2021/09/26 05:27:27;;;;;;;26.48;14.80;;;;;;;;;;4979469;28;20034;-69
2021/09/26 05:29:53;;;;;;;24.92;14.65;;;;;;;;;;4979256;28;20035;-69
2021/09/26 05:32:19;;;;;;;29.98;17.08;;;;;;;;;;4979937;28;20592;-70
2021/09/26 05:34:45;;;;;;;27.30;15.52;;;;;;;;;;4976788;28;20042;-70
2021/09/26 05:37:11;;;;;;;24.10;14.80;;;;;;;;;;4980929;28;20138;-71
2021/09/26 05:39:37;;;;;;;26.13;15.38;;;;;;;;;;4981077;28;20065;-70
2021/09/26 05:42:03;;;;;;;24.88;14.93;;;;;;;;;;4979790;28;20093;-70
2021/09/26 05:44:29;;;;;;;32.25;17.20;;;;;;;;;;4979995;28;20073;-70
2021/09/26 05:46:55;;;;;;;33.20;16.48;;;;;;;;;;4977134;28;20042;-70
2021/09/26 05:49:21;;;;;;;26.65;14.57;;;;;;;;;;4977900;28;20041;-70
2021/09/26 05:51:47;;;;;;;29.83;17.35;;;;;;;;;;4979510;28;20046;-70
2021/09/26 05:54:13;;;;;;;31.10;17.02;;;;;;;;;;4978382;28;20038;-73
2021/09/26 05:56:39;;;;;;;39.33;19.25;;;;;;;;;;4979233;28;20046;-70
2021/09/26 05:59:05;;;;;;;37.38;20.27;;;;;;;;;;4978727;28;20038;-69
2021/09/26 06:01:31;;;;;;;42.03;20.00;;;;;;;;;;4979178;28;20058;-69
2021/09/26 06:03:57;;;;;;;42.83;20.73;;;;;;;;;;4979494;28;20038;-69
2021/09/26 06:06:23;;;;;;;55.20;23.98;;;;;;;;;;4977456;28;20046;-69
2021/09/26 06:08:49;;;;;;;52.42;24.05;;;;;;;;;;4979198;28;20808;-69
2021/09/26 06:11:15;;;;;;;41.47;20.73;;;;;;;;;;4977928;28;20026;-69
2021/09/26 06:13:41;;;;;;;46.22;20.42;;;;;;;;;;4979311;28;20035;-69
2021/09/26 06:16:07;;;;;;;45.67;21.45;;;;;;;;;;4978812;28;20109;-69
2021/09/26 06:18:33;;;;;;;46.58;21.70;;;;;;;;;;4977744;28;20151;-71
2021/09/26 06:20:59;;;;;;;50.00;22.10;;;;;;;;;;4978634;28;20084;-70
2021/09/26 06:23:25;;;;;;;44.80;20.98;;;;;;;;;;4976793;28;20756;-69
2021/09/26 06:25:51;;;;;;;49.88;24.35;;;;;;;;;;4978544;28;20044;-69
2021/09/26 06:28:17;;;;;;;54.30;23.38;;;;;;;;;;4976832;28;20031;-69
2021/09/26 06:30:43;;;;;;;55.13;22.80;;;;;;;;;;4977829;28;20030;-69
2021/09/26 06:33:09;;;;;;;51.47;22.08;;;;;;;;;;4976714;28;20077;-69
2021/09/26 06:35:35;;;;;;;56.35;23.05;;;;;;;;;;4976470;28;20038;-69
2021/09/26 06:38:01;;;;;;;50.10;21.55;;;;;;;;;;4976938;28;20089;-69
2021/09/26 06:40:27;;;;;;;54.25;21.40;;;;;;;;;;4978197;28;20542;-69
2021/09/26 06:42:53;;;;;;;50.28;18.98;;;;;;;;;;4977696;28;20553;-68
2021/09/26 06:45:19;;;;;;;51.78;20.27;;;;;;;;;;4978220;28;20149;-69
2021/09/26 06:47:45;;;;;;;55.30;21.00;;;;;;;;;;4977216;28;20065;-69
2021/09/26 06:50:11;;;;;;;49.15;19.77;;;;;;;;;;4977095;28;20026;-69
2021/09/26 06:52:37;;;;;;;47.08;18.88;;;;;;;;;;4978910;28;20466;-69
2021/09/26 06:55:03;;;;;;;55.97;19.05;;;;;;;;;;4977663;28;20038;-70
2021/09/26 06:57:29;;;;;;;43.70;17.13;;;;;;;;;;4979557;28;20115;-70
2021/09/26 06:59:55;;;;;;;36.25;22.17;;;;;;;;;;4979097;28;20041;-68
2021/09/26 07:02:22;;;;;;;42.28;17.67;;;;;;;;;;4961615;28;20042;-70
2021/09/26 07:04:48;;;;;;;35.80;16.00;;;;;;;;;;4980496;28;20042;-70
2021/09/26 07:07:14;;;;;;;33.40;14.35;;;;;;;;;;4978958;28;20041;-72
2021/09/26 07:09:40;;;;;;;39.15;14.80;;;;;;;;;;4981365;28;20018;-72
2021/09/26 07:12:06;;;;;;;28.95;13.90;;;;;;;;;;4980429;28;20062;-72
2021/09/26 07:14:32;;;;;;;26.33;12.52;;;;;;;;;;4979609;28;20147;-72
2021/09/26 07:16:58;;;;;;;34.83;14.30;;;;;;;;;;4977915;28;20034;-72
2021/09/26 07:19:24;;;;;;;52.97;15.55;;;;;;;;;;4964217;28;20034;-71
2021/09/26 07:21:50;;;;;;;49.88;14.57;;;;;;;;;;4981747;28;20051;-71
2021/09/26 07:24:16;;;;;;;46.60;14.18;;;;;;;;;;4982666;28;20093;-71
2021/09/26 07:26:42;;;;;;;41.15;11.70;;;;;;;;;;4981074;28;20161;-71
2021/09/26 07:29:08;;;;;;;43.47;14.02;;;;;;;;;;4980341;28;20030;-71
2021/09/26 07:31:34;;;;;;;52.53;14.48;;;;;;;;;;4980201;28;20911;-71
2021/09/26 07:34:00;;;;;;;42.10;12.18;;;;;;;;;;4981162;28;20843;-71
2021/09/26 07:36:26;;;;;;;59.83;14.43;;;;;;;;;;4980456;28;20038;-71
2021/09/26 07:38:52;;;;;;;55.00;13.02;;;;;;;;;;4981369;28;20088;-71
2021/09/26 07:41:18;;;;;;;30.23;11.50;;;;;;;;;;4977171;28;20133;-71
2021/09/26 07:43:44;;;;;;;40.75;12.55;;;;;;;;;;4981764;28;20802;-71
2021/09/26 07:46:10;;;;;;;22.50;10.63;;;;;;;;;;4982544;28;20026;-71
2021/09/26 07:48:36;;;;;;;11.52;7.20;;;;;;;;;;4980304;28;20030;-71
2021/09/26 07:51:02;;;;;;;12.45;7.43;;;;;;;;;;4982283;28;20034;-71
2021/09/26 07:53:28;;;;;;;12.35;8.50;;;;;;;;;;4981739;28;20044;-71
2021/09/26 07:55:55;;;;;;;15.32;8.85;;;;;;;;;;4982668;28;20853;-71
2021/09/26 07:58:21;;;;;;;13.40;7.35;;;;;;;;;;4981744;28;20113;-71
2021/09/26 08:00:47;;;;;;;10.35;7.10;;;;;;;;;;4982717;28;20101;-71
2021/09/26 08:03:13;;;;;;;9.43;6.65;;;;;;;;;;4981301;28;20034;-71
2021/09/26 08:05:39;;;;;;;12.05;7.70;;;;;;;;;;4982407;28;20041;-71
2021/09/26 08:08:05;;;;;;;12.55;7.18;;;;;;;;;;4980648;28;20403;-71
2021/09/26 08:10:31;;;;;;;10.75;6.05;;;;;;;;;;4981305;28;20176;-71
2021/09/26 08:12:57;;;;;;;13.45;6.65;;;;;;;;;;4978933;28;20046;-70
2021/09/26 08:15:23;;;;;;;12.15;6.13;;;;;;;;;;4981667;28;20045;-70
2021/09/26 08:17:50;;;;;;;10.68;6.25;;;;;;;;;;4981301;28;20195;-70
2021/09/26 08:20:17;;;;;;;8.95;5.53;;;;;;;;;;4980535;28;20038;-74
2021/09/26 08:22:43;;;;;;;11.15;6.40;;;;;;;;;;4961845;28;20802;-70
2021/09/26 08:25:09;;;;;;;10.65;6.22;;;;;;;;;;4981001;28;20065;-71
2021/09/26 08:27:37;;;;;;;11.98;6.18;;;;;;;;;;4980379;28;20081;-71
2021/09/26 08:30:07;;;;;;;11.13;5.88;;;;;;;;;;4980620;28;20731;-71
2021/09/26 08:32:33;;;;;;;11.30;6.55;;;;;;;;;;4983332;28;20034;-70
2021/09/26 08:34:59;;;;;;;11.57;6.68;;;;;;;;;;4980914;28;20044;-71
2021/09/26 08:37:25;;;;;;;10.32;6.13;;;;;;;;;;4979604;28;20061;-71
2021/09/26 08:39:51;;;;;;;11.10;7.03;;;;;;;;;;4962558;28;20150;-71
2021/09/26 08:42:17;;;;;;;10.20;7.03;;;;;;;;;;4981331;28;20085;-69
2021/09/26 08:44:43;;;;;;;10.00;7.07;;;;;;;;;;4981170;28;20045;-71
2021/09/26 08:47:09;;;;;;;20.17;9.98;;;;;;;;;;4979594;28;20041;-71
2021/09/26 08:49:35;;;;;;;15.88;8.38;;;;;;;;;;4963706;28;20026;-69
2021/09/26 08:52:01;;;;;;;8.60;6.35;;;;;;;;;;4980476;28;20027;-71
2021/09/26 08:54:27;;;;;;;10.68;7.07;;;;;;;;;;4980567;28;20221;-70
2021/09/26 08:56:53;;;;;;;9.45;6.85;;;;;;;;;;4980494;28;20049;-70
2021/09/26 08:59:19;;;;;;;21.95;12.77;;;;;;;;;;4980170;28;20736;-70
2021/09/26 09:01:45;;;;;;;10.38;6.47;;;;;;;;;;4980389;28;20041;-71
2021/09/26 09:04:11;;;;;;;17.20;8.10;;;;;;;;;;4976793;28;20034;-71
2021/09/26 09:06:38;;;;;;;10.10;7.10;;;;;;;;;;4980454;28;20930;-70
2021/09/26 09:09:04;;;;;;;23.75;12.82;;;;;;;;;;4978647;28;20045;-70
2021/09/26 09:11:30;;;;;;;13.73;7.00;;;;;;;;;;4978610;28;20027;-75
2021/09/26 09:13:55;;;;;;;10.02;5.53;;;;;;;;;;4980932;28;20517;-71
2021/09/26 09:16:21;;;;;;;8.52;5.22;;;;;;;;;;4980093;28;20396;-70
2021/09/26 09:18:51;;;;;;;7.20;5.20;;;;;;;;;;4980641;28;20804;-71
2021/09/26 09:21:17;;;;;;;8.75;5.00;;;;;;;;;;4981883;28;20046;-70
2021/09/26 09:23:43;;;;;;;10.30;5.85;;;;;;;;;;4982236;28;20835;-71
2021/09/26 09:26:09;;;;;;;7.93;5.38;;;;;;;;;;4983351;28;20061;-71
2021/09/26 09:28:39;;;;;;;16.50;9.23;;;;;;;;;;4979100;28;20026;-71
2021/09/26 09:31:05;;;;;;;8.98;5.85;;;;;;;;;;4979735;28;20034;-71
2021/09/26 09:33:31;;;;;;;10.65;6.30;;;;;;;;;;4979461;28;20041;-73
2021/09/26 09:35:57;;;;;;;13.27;6.30;;;;;;;;;;4979670;28;20042;-71
2021/09/26 09:38:23;;;;;;;7.53;4.93;;;;;;;;;;4978010;28;20065;-71
2021/09/26 09:40:49;;;;;;;9.52;5.50;;;;;;;;;;4976459;28;20117;-71
2021/09/26 09:43:15;;;;;;;8.20;5.13;;;;;;;;;;4979823;28;20129;-71
2021/09/26 09:45:42;;;;;;;9.98;5.88;;;;;;;;;;4979713;28;20793;-71
2021/09/26 09:48:08;;;;;;;8.15;4.47;;;;;;;;;;4978589;28;20475;-71
2021/09/26 09:50:34;;;;;;;10.00;4.60;;;;;;;;;;4979844;28;20077;-72
2021/09/26 09:53:00;;;;;;;6.63;4.93;;;;;;;;;;4978687;28;20121;-73
2021/09/26 09:55:26;;;;;;;6.95;4.63;;;;;;;;;;4979660;28;20745;-71
2021/09/26 09:57:52;;;;;;;11.07;4.55;;;;;;;;;;4979048;28;20620;-71
2021/09/26 10:00:18;;;;;;;7.60;4.45;;;;;;;;;;4977180;28;20043;-70
2021/09/26 10:02:44;;;;;;;5.60;3.97;;;;;;;;;;4979721;28;20045;-71
2021/09/26 10:05:10;;;;;;;9.88;4.47;;;;;;;;;;4978494;28;20649;-71
2021/09/26 10:07:37;;;;;;;10.23;5.22;;;;;;;;;;4977783;28;20132;-71
2021/09/26 10:10:03;;;;;;;5.78;4.57;;;;;;;;;;4979017;28;20034;-71
2021/09/26 10:12:29;;;;;;;8.20;4.32;;;;;;;;;;4977049;28;20906;-70
2021/09/26 10:14:55;;;;;;;9.68;4.70;;;;;;;;;;4978784;28;20034;-71
2021/09/26 10:17:21;;;;;;;7.53;4.55;;;;;;;;;;4978146;28;20034;-70
2021/09/26 10:19:47;;;;;;;6.93;4.65;;;;;;;;;;4978441;28;20037;-69
2021/09/26 10:22:16;;;;;;;9.43;4.85;;;;;;;;;;4978267;28;20591;-69
2021/09/26 10:24:42;;;;;;;18.20;5.38;;;;;;;;;;4975240;28;20072;-69
2021/09/26 10:27:08;;;;;;;11.38;4.10;;;;;;;;;;4978633;28;20657;-69
2021/09/26 10:29:34;;;;;;;5.82;4.30;;;;;;;;;;4977628;28;20885;-69
2021/09/26 10:32:00;;;;;;;11.38;6.40;;;;;;;;;;4978898;28;20042;-68
2021/09/26 10:34:26;;;;;;;5.47;3.90;;;;;;;;;;4977328;28;20049;-68
2021/09/26 10:36:52;;;;;;;10.63;6.63;;;;;;;;;;4976438;28;20042;-68
2021/09/26 10:39:18;;;;;;;6.97;4.47;;;;;;;;;;4963531;28;20034;-68
2021/09/26 10:41:44;;;;;;;6.35;4.32;;;;;;;;;;4977282;28;20045;-68
2021/09/26 10:44:10;;;;;;;8.23;4.88;;;;;;;;;;4979133;28;20045;-68
2021/09/26 10:46:36;;;;;;;19.08;4.90;;;;;;;;;;4978432;28;20044;-68
2021/09/26 10:49:02;;;;;;;10.65;3.97;;;;;;;;;;4977921;28;20056;-68
2021/09/26 10:51:28;;;;;;;8.18;4.43;;;;;;;;;;4978845;28;20030;-68
2021/09/26 10:53:54;;;;;;;10.10;4.65;;;;;;;;;;4977872;28;20475;-68
2021/09/26 10:56:20;;;;;;;8.73;4.35;;;;;;;;;;4978935;28;20034;-68
2021/09/26 10:58:46;;;;;;;11.15;4.32;;;;;;;;;;4977975;28;20034;-67
2021/09/26 11:01:11;;;;;;;11.02;6.88;;;;;;;;;;4977897;28;20042;-68
2021/09/26 11:03:39;;;;;;;12.68;4.35;;;;;;;;;;4978643;28;20125;-68
2021/09/26 11:06:05;;;;;;;12.88;6.22;;;;;;;;;;4977869;28;20418;-68
2021/09/26 11:08:31;;;;;;;8.75;5.35;;;;;;;;;;4977019;28;20036;-68
2021/09/26 11:10:57;;;;;;;5.97;3.97;;;;;;;;;;4978376;28;20053;-68
2021/09/26 11:13:22;;;;;;;7.22;3.92;;;;;;;;;;4977862;28;20041;-71
2021/09/26 11:15:48;;;;;;;9.98;4.88;;;24.30;99.90;;;;;;4976572;28;20150;-70
2021/09/26 11:18:14;;;;;;;10.05;6.22;;;;;;;;;;4977772;28;20479;-71
2021/09/26 11:20:40;;;;;;;6.95;4.30;;;;;;;;;;4977426;28;20084;-71
2021/09/26 11:23:06;;;;;;;10.30;4.30;;;;;;;;;;4978291;28;20058;-71
2021/09/26 11:25:32;;;;;;;13.32;4.20;;;;;;;;;;4975184;28;20046;-69
2021/09/26 11:27:58;;;;;;;6.57;3.88;;;;;;;;;;4978209;28;20031;-70
2021/09/26 11:30:26;;;;;;;8.23;4.22;;;;;;;;;;4981275;28;20045;-71
2021/09/26 11:32:52;;;;;;;10.45;4.22;;;;;;;;;;4979394;28;20576;-70
2021/09/26 11:35:18;;;;;;;8.68;3.97;;;;;;;;;;4980552;28;20518;-71
2021/09/26 11:37:44;;;;;;;11.00;4.20;;;;;;;;;;4978377;28;20042;-69
2021/09/26 11:40:10;;;;;;;5.68;3.47;;;;;;;;;;4976786;28;20066;-70
2021/09/26 11:42:36;;;;;;;9.50;4.50;;;;;;;;;;4977842;28;20037;-70
2021/09/26 11:45:02;;;;;;;6.20;3.80;;;;;;;;;;4975232;28;20410;-70
2021/09/26 11:47:28;;;;;;;11.75;3.80;;;;;;;;;;4976138;28;20030;-70
2021/09/26 11:49:54;;;;;;;4.78;3.45;;;;;;;;;;4977148;28;20829;-70
2021/09/26 11:52:20;;;;;;;8.02;3.70;;;;;;;;;;4977173;28;20538;-70
2021/09/26 11:54:46;;;;;;;6.55;3.72;;;;;;;;;;4959833;28;20030;-70
2021/09/26 11:57:12;;;;;;;4.88;3.75;;;;;;;;;;4977602;28;20037;-70
2021/09/26 11:59:38;;;;;;;4.70;3.60;;;;;;;;;;4978159;28;20296;-70
2021/09/26 12:02:04;;;;;;;6.55;3.95;;;;;;;;;;4979192;28;20035;-69
2021/09/26 12:04:30;;;;;;;6.03;4.20;;;;;;;;;;4978134;28;20034;-70
2021/09/26 12:06:56;;;;;;;5.70;4.00;;;;;;;;;;4980809;28;20033;-70
2021/09/26 12:09:22;;;;;;;4.90;3.92;;;;;;;;;;4978482;28;20038;-70
2021/09/26 12:11:48;;;;;;;7.57;4.03;;;;;;;;;;4981817;28;20141;-69
2021/09/26 12:14:14;;;;;;;5.70;4.20;;;;;;;;;;4980721;28;20042;-69
2021/09/26 12:16:40;;;;;;;9.65;3.83;;;;;;;;;;4982129;28;20065;-70
2021/09/26 12:19:06;;;;;;;5.30;3.92;;;;;;;;;;4981923;28;20038;-69
2021/09/26 12:21:34;;;;;;;6.22;4.13;;;;;;;;;;4981340;28;20096;-70
2021/09/26 12:24:00;;;;;;;4.82;3.83;;;;;;;;;;4980922;28;20039;-70
2021/09/26 12:26:27;;;;;;;7.90;4.30;;;;;;;;;;4980653;28;20043;-70
2021/09/26 12:28:52;;;;;;;7.30;4.57;;;;;;;;;;4963400;28;20034;-70
2021/09/26 12:31:18;;;;;;;8.02;5.50;;;;;;;;;;4985948;28;20509;-69
2021/09/26 12:33:44;;;;;;;10.48;6.70;;;;;;;;;;4978589;28;20102;-70
2021/09/26 12:36:10;;;;;;;11.38;5.05;;;;;;;;;;4982063;28;20030;-70
2021/09/26 12:38:36;;;;;;;6.28;4.13;;;;;;;;;;4981715;28;20536;-70
2021/09/26 12:41:02;;;;;;;8.93;3.83;;;;;;;;;;4981092;28;20061;-70
2021/09/26 12:43:28;;;;;;;5.07;3.70;;;;;;;;;;4981238;28;20062;-70
2021/09/26 12:45:54;;;;;;;7.88;4.85;;;;;;;;;;4980906;28;20120;-70
2021/09/26 12:48:21;;;;;;;6.28;4.28;;;;;;;;;;4981473;28;20050;-70
2021/09/26 12:50:47;;;;;;;12.20;5.65;;;;;;;;;;4980855;28;20034;-70
2021/09/26 12:53:13;;;;;;;4.93;3.60;;;;;;;;;;4980352;28;20041;-70
2021/09/26 12:55:39;;;;;;;7.10;3.85;;;;;;;;;;4980065;28;20053;-70
2021/09/26 12:58:05;;;;;;;6.57;4.20;;;;;;;;;;4980071;28;20246;-70
2021/09/26 13:00:31;;;;;;;5.53;3.70;;;;;;;;;;4981184;28;20135;-70
2021/09/26 13:02:57;;;;;;;5.90;4.20;;;;;;;;;;4981288;28;20042;-70
2021/09/26 13:05:23;;;;;;;4.82;4.18;;;;;;;;;;4962609;28;20677;-70
2021/09/26 13:07:49;;;;;;;5.90;3.50;;;;;;;;;;4980820;28;20830;-70
2021/09/26 13:10:15;;;;;;;4.90;3.75;;;;;;;;;;4980378;28;20044;-70
2021/09/26 13:12:41;;;;;;;6.30;4.00;;;;;;;;;;4961664;28;20037;-69
2021/09/26 13:15:07;;;;;;;6.53;3.40;;;;;;;;;;4963363;28;20030;-73
2021/09/26 13:17:33;;;;;;;6.55;3.75;;;25.80;96.20;;;;;;4980247;28;20057;-72
2021/09/26 13:19:58;;;;;;;9.65;3.72;;;26.00;99.90;;;;;;4979083;28;20558;-71
2021/09/26 13:22:25;;;;;;;7.40;3.95;;;;;;;;;;4979135;28;20042;-71
2021/09/26 13:24:51;;;;;;;6.88;3.53;;;;;;;;;;4979416;28;20924;-71
2021/09/26 13:27:17;;;;;;;5.65;3.70;;;;;;;;;;4979339;28;20061;-71
2021/09/26 13:29:43;;;;;;;5.15;3.72;;;;;;;;;;4979321;28;20034;-71
2021/09/26 13:32:09;;;;;;;6.30;3.67;;;;;;;;;;4981896;28;20041;-71
2021/09/26 13:34:35;;;;;;;5.85;4.00;;;;;;;;;;4981322;28;20052;-71
2021/09/26 13:37:01;;;;;;;8.82;3.72;;;;;;;;;;4981648;28;20034;-70
2021/09/26 13:39:27;;;;;;;4.97;3.85;;;;;;;;;;4980888;28;20045;-72
2021/09/26 13:41:53;;;;;;;7.05;3.92;;;;;;;;;;4978748;28;20039;-78
2021/09/26 13:44:22;;;;;;;4.82;3.47;;;;;;;;;;4962541;28;20041;-72
2021/09/26 13:46:48;;;;;;;4.80;3.63;;;;;;;;;;4977493;28;20031;-71
2021/09/26 13:49:14;;;;;;;5.97;3.92;;;;;;;;;;4977501;28;20033;-71
2021/09/26 13:51:40;;;;;;;5.45;3.58;;;;;;;;;;4978066;28;20034;-71
2021/09/26 13:54:06;;;;;;;5.85;3.63;;;26.00;95.70;;;;;;4977885;28;20038;-76
2021/09/26 13:56:32;;;;;;;4.32;3.33;;;26.00;95.40;;;;;;4978111;28;20065;-68
2021/09/26 13:58:57;;;;;;;8.80;4.53;;;;;;;;;;4977427;28;20038;-66
2021/09/26 14:01:24;;;;;;;6.30;3.47;;;;;;;;;;4979236;28;20553;-65
2021/09/26 14:03:49;;;;;;;10.38;3.90;;;;;;;;;;4978276;28;20089;-65
2021/09/26 14:06:16;;;;;;;4.50;3.55;;;;;;;;;;4978741;28;20030;-64
2021/09/26 14:08:42;;;;;;;4.45;3.20;;;;;;;;;;4979353;28;20117;-64
2021/09/26 14:11:07;;;;;;;4.97;3.83;;;;;;;;;;4978624;28;20110;-64
2021/09/26 14:13:33;;;;;;;7.28;3.45;;;;;;;;;;4978902;28;20054;-64
2021/09/26 14:15:59;;;;;;;4.55;3.10;;;;;;;;;;4978631;28;20038;-64